sensor_id;sensor_type;location;lat;lon;timestamp;P1;durP1;ratioP1;P2;durP2;ratioP2
19149;SDS011;9707;49.158;8.632;2024-03-29T00:00:50;1.90;;;0.70;;
19149;SDS011;9707;49.158;8.632;2024-03-29T00:03:15;1.70;;;0.60;;
19149;SDS011;9707;49.158;8.632;2024-03-29T00:05:41;1.25;;;0.63;;
19149;SDS011;9707;49.158;8.632;2024-03-29T00:08:06;2.95;;;0.90;;
19149;SDS011;9707;49.158;8.632;2024-03-29T00:10:31;0.85;;;0.57;;
19149;SDS011;9707;49.158;8.632;2024-03-29T00:12:58;1.55;;;0.85;;
19149;SDS011;9707;49.158;8.632;2024-03-29T00:15:23;1.75;;;0.63;;
19149;SDS011;9707;49.158;8.632;2024-03-29T00:17:49;1.33;;;0.68;;
19149;SDS011;9707;49.158;8.632;2024-03-29T00:20:14;1.45;;;0.70;;
19149;SDS011;9707;49.158;8.632;2024-03-29T00:22:40;0.82;;;0.50;;
19149;SDS011;9707;49.158;8.632;2024-03-29T00:25:05;0.88;;;0.57;;
19149;SDS011;9707;49.158;8.632;2024-03-29T00:27:31;1.55;;;0.70;;
19149;SDS011;9707;49.158;8.632;2024-03-29T00:29:57;2.38;;;0.70;;
19149;SDS011;9707;49.158;8.632;2024-03-29T00:32:23;1.23;;;0.60;;
19149;SDS011;9707;49.158;8.632;2024-03-29T00:34:51;3.83;;;0.80;;
19149;SDS011;9707;49.158;8.632;2024-03-29T00:37:17;1.00;;;0.52;;
19149;SDS011;9707;49.158;8.632;2024-03-29T00:39:43;1.00;;;0.60;;
19149;SDS011;9707;49.158;8.632;2024-03-29T00:42:09;1.55;;;0.50;;
19149;SDS011;9707;49.158;8.632;2024-03-29T00:44:37;0.60;;;0.35;;
19149;SDS011;9707;49.158;8.632;2024-03-29T00:47:03;1.08;;;0.50;;
19149;SDS011;9707;49.158;8.632;2024-03-29T00:49:29;0.57;;;0.50;;
19149;SDS011;9707;49.158;8.632;2024-03-29T00:51:54;2.28;;;0.73;;
19149;SDS011;9707;49.158;8.632;2024-03-29T00:54:20;1.13;;;0.60;;
19149;SDS011;9707;49.158;8.632;2024-03-29T00:56:45;1.60;;;0.65;;
19149;SDS011;9707;49.158;8.632;2024-03-29T00:59:10;1.15;;;0.63;;
19149;SDS011;9707;49.158;8.632;2024-03-29T01:01:35;0.50;;;0.38;;
19149;SDS011;9707;49.158;8.632;2024-03-29T01:04:01;1.42;;;0.70;;
19149;SDS011;9707;49.158;8.632;2024-03-29T01:06:26;0.95;;;0.47;;
19149;SDS011;9707;49.158;8.632;2024-03-29T01:08:51;2.75;;;0.77;;
19149;SDS011;9707;49.158;8.632;2024-03-29T01:11:16;0.95;;;0.40;;
19149;SDS011;9707;49.158;8.632;2024-03-29T01:13:42;2.25;;;0.50;;
19149;SDS011;9707;49.158;8.632;2024-03-29T01:16:07;1.23;;;0.60;;
19149;SDS011;9707;49.158;8.632;2024-03-29T01:18:32;1.83;;;0.50;;
19149;SDS011;9707;49.158;8.632;2024-03-29T01:20:58;2.55;;;0.60;;
19149;SDS011;9707;49.158;8.632;2024-03-29T01:23:23;0.77;;;0.43;;
19149;SDS011;9707;49.158;8.632;2024-03-29T01:25:49;1.02;;;0.45;;
19149;SDS011;9707;49.158;8.632;2024-03-29T01:28:14;0.98;;;0.40;;
19149;SDS011;9707;49.158;8.632;2024-03-29T01:30:39;2.00;;;0.60;;
19149;SDS011;9707;49.158;8.632;2024-03-29T01:33:04;2.72;;;0.50;;
19149;SDS011;9707;49.158;8.632;2024-03-29T01:35:30;1.02;;;0.50;;
19149;SDS011;9707;49.158;8.632;2024-03-29T01:37:55;0.52;;;0.30;;
19149;SDS011;9707;49.158;8.632;2024-03-29T01:40:21;0.85;;;0.38;;
19149;SDS011;9707;49.158;8.632;2024-03-29T01:42:46;2.35;;;0.40;;
19149;SDS011;9707;49.158;8.632;2024-03-29T01:45:11;1.38;;;0.50;;
19149;SDS011;9707;49.158;8.632;2024-03-29T01:47:41;2.85;;;0.50;;
19149;SDS011;9707;49.158;8.632;2024-03-29T01:50:06;1.00;;;0.50;;
19149;SDS011;9707;49.158;8.632;2024-03-29T01:52:32;2.72;;;0.50;;
19149;SDS011;9707;49.158;8.632;2024-03-29T01:54:57;1.15;;;0.50;;
19149;SDS011;9707;49.158;8.632;2024-03-29T01:57:22;1.38;;;0.57;;
19149;SDS011;9707;49.158;8.632;2024-03-29T01:59:48;1.75;;;0.50;;
19149;SDS011;9707;49.158;8.632;2024-03-29T02:02:14;1.08;;;0.52;;
19149;SDS011;9707;49.158;8.632;2024-03-29T02:04:39;1.95;;;0.50;;
19149;SDS011;9707;49.158;8.632;2024-03-29T02:07:05;1.13;;;0.50;;
19149;SDS011;9707;49.158;8.632;2024-03-29T02:09:30;1.25;;;0.45;;
19149;SDS011;9707;49.158;8.632;2024-03-29T02:11:55;0.50;;;0.30;;
19149;SDS011;9707;49.158;8.632;2024-03-29T02:14:21;0.95;;;0.50;;
19149;SDS011;9707;49.158;8.632;2024-03-29T02:16:46;0.57;;;0.40;;
19149;SDS011;9707;49.158;8.632;2024-03-29T02:19:11;1.92;;;0.68;;
19149;SDS011;9707;49.158;8.632;2024-03-29T02:21:37;0.80;;;0.40;;
19149;SDS011;9707;49.158;8.632;2024-03-29T02:24:08;1.25;;;0.50;;
19149;SDS011;9707;49.158;8.632;2024-03-29T02:26:34;1.38;;;0.40;;
19149;SDS011;9707;49.158;8.632;2024-03-29T02:29:06;0.88;;;0.40;;
19149;SDS011;9707;49.158;8.632;2024-03-29T02:31:32;0.55;;;0.35;;
19149;SDS011;9707;49.158;8.632;2024-03-29T02:33:57;1.27;;;0.40;;
19149;SDS011;9707;49.158;8.632;2024-03-29T02:36:22;2.15;;;0.52;;
19149;SDS011;9707;49.158;8.632;2024-03-29T02:38:48;2.00;;;0.38;;
19149;SDS011;9707;49.158;8.632;2024-03-29T02:41:13;1.10;;;0.32;;
19149;SDS011;9707;49.158;8.632;2024-03-29T02:43:38;1.75;;;0.32;;
19149;SDS011;9707;49.158;8.632;2024-03-29T02:46:03;0.93;;;0.50;;
19149;SDS011;9707;49.158;8.632;2024-03-29T02:48:32;0.70;;;0.47;;
19149;SDS011;9707;49.158;8.632;2024-03-29T02:50:57;1.27;;;0.45;;
19149;SDS011;9707;49.158;8.632;2024-03-29T02:53:22;0.90;;;0.30;;
19149;SDS011;9707;49.158;8.632;2024-03-29T02:55:47;1.27;;;0.50;;
19149;SDS011;9707;49.158;8.632;2024-03-29T02:58:13;0.73;;;0.38;;
19149;SDS011;9707;49.158;8.632;2024-03-29T03:00:38;1.20;;;0.57;;
19149;SDS011;9707;49.158;8.632;2024-03-29T03:03:03;0.47;;;0.40;;
19149;SDS011;9707;49.158;8.632;2024-03-29T03:05:29;1.13;;;0.50;;
19149;SDS011;9707;49.158;8.632;2024-03-29T03:07:57;0.43;;;0.20;;
19149;SDS011;9707;49.158;8.632;2024-03-29T03:10:45;1.38;;;0.40;;
19149;SDS011;9707;49.158;8.632;2024-03-29T03:13:25;0.70;;;0.50;;
19149;SDS011;9707;49.158;8.632;2024-03-29T03:15:51;0.73;;;0.50;;
19149;SDS011;9707;49.158;8.632;2024-03-29T03:18:16;1.33;;;0.30;;
19149;SDS011;9707;49.158;8.632;2024-03-29T03:20:41;1.85;;;0.60;;
19149;SDS011;9707;49.158;8.632;2024-03-29T03:23:07;1.48;;;0.50;;
19149;SDS011;9707;49.158;8.632;2024-03-29T03:25:32;1.05;;;0.28;;
19149;SDS011;9707;49.158;8.632;2024-03-29T03:27:57;1.80;;;0.50;;
19149;SDS011;9707;49.158;8.632;2024-03-29T03:30:22;1.58;;;0.73;;
19149;SDS011;9707;49.158;8.632;2024-03-29T03:32:48;1.80;;;0.50;;
19149;SDS011;9707;49.158;8.632;2024-03-29T03:35:13;1.15;;;0.43;;
19149;SDS011;9707;49.158;8.632;2024-03-29T03:37:39;0.60;;;0.60;;
19149;SDS011;9707;49.158;8.632;2024-03-29T03:40:04;1.70;;;0.50;;
19149;SDS011;9707;49.158;8.632;2024-03-29T03:42:31;2.58;;;0.40;;
19149;SDS011;9707;49.158;8.632;2024-03-29T03:44:56;2.38;;;0.50;;
19149;SDS011;9707;49.158;8.632;2024-03-29T03:47:22;1.13;;;0.40;;
19149;SDS011;9707;49.158;8.632;2024-03-29T03:49:47;0.93;;;0.40;;
19149;SDS011;9707;49.158;8.632;2024-03-29T03:52:12;0.50;;;0.30;;
19149;SDS011;9707;49.158;8.632;2024-03-29T03:54:37;0.73;;;0.45;;
19149;SDS011;9707;49.158;8.632;2024-03-29T03:57:03;1.45;;;0.57;;
19149;SDS011;9707;49.158;8.632;2024-03-29T03:59:29;1.35;;;0.50;;
19149;SDS011;9707;49.158;8.632;2024-03-29T04:01:54;0.73;;;0.35;;
19149;SDS011;9707;49.158;8.632;2024-03-29T04:04:19;0.40;;;0.30;;
19149;SDS011;9707;49.158;8.632;2024-03-29T04:06:45;0.47;;;0.30;;
19149;SDS011;9707;49.158;8.632;2024-03-29T04:09:10;0.55;;;0.40;;
19149;SDS011;9707;49.158;8.632;2024-03-29T04:11:36;1.10;;;0.47;;
19149;SDS011;9707;49.158;8.632;2024-03-29T04:14:01;1.02;;;0.30;;
19149;SDS011;9707;49.158;8.632;2024-03-29T04:16:26;0.50;;;0.25;;
19149;SDS011;9707;49.158;8.632;2024-03-29T04:18:51;1.10;;;0.35;;
19149;SDS011;9707;49.158;8.632;2024-03-29T04:21:17;1.88;;;0.38;;
19149;SDS011;9707;49.158;8.632;2024-03-29T04:23:42;0.85;;;0.30;;
19149;SDS011;9707;49.158;8.632;2024-03-29T04:26:07;0.45;;;0.30;;
19149;SDS011;9707;49.158;8.632;2024-03-29T04:28:32;1.65;;;0.55;;
19149;SDS011;9707;49.158;8.632;2024-03-29T04:30:59;1.38;;;0.40;;
19149;SDS011;9707;49.158;8.632;2024-03-29T04:33:25;0.35;;;0.30;;
19149;SDS011;9707;49.158;8.632;2024-03-29T04:35:56;1.55;;;0.38;;
19149;SDS011;9707;49.158;8.632;2024-03-29T04:38:23;2.38;;;0.50;;
19149;SDS011;9707;49.158;8.632;2024-03-29T04:40:50;0.30;;;0.30;;
19149;SDS011;9707;49.158;8.632;2024-03-29T04:43:16;0.60;;;0.40;;
19149;SDS011;9707;49.158;8.632;2024-03-29T04:45:42;2.38;;;0.60;;
19149;SDS011;9707;49.158;8.632;2024-03-29T04:48:09;0.93;;;0.60;;
19149;SDS011;9707;49.158;8.632;2024-03-29T04:50:34;1.80;;;0.40;;
19149;SDS011;9707;49.158;8.632;2024-03-29T04:53:00;0.73;;;0.40;;
19149;SDS011;9707;49.158;8.632;2024-03-29T04:55:25;1.92;;;0.32;;
19149;SDS011;9707;49.158;8.632;2024-03-29T04:57:50;1.40;;;0.52;;
19149;SDS011;9707;49.158;8.632;2024-03-29T05:00:15;1.20;;;0.30;;
19149;SDS011;9707;49.158;8.632;2024-03-29T05:02:41;1.27;;;0.60;;
19149;SDS011;9707;49.158;8.632;2024-03-29T05:05:06;2.38;;;0.57;;
19149;SDS011;9707;49.158;8.632;2024-03-29T05:07:31;0.55;;;0.35;;
19149;SDS011;9707;49.158;8.632;2024-03-29T05:09:56;0.77;;;0.30;;
19149;SDS011;9707;49.158;8.632;2024-03-29T05:12:22;2.05;;;0.40;;
19149;SDS011;9707;49.158;8.632;2024-03-29T05:14:47;1.98;;;0.63;;
19149;SDS011;9707;49.158;8.632;2024-03-29T05:17:14;0.40;;;0.20;;
19149;SDS011;9707;49.158;8.632;2024-03-29T05:19:40;0.60;;;0.30;;
19149;SDS011;9707;49.158;8.632;2024-03-29T05:22:05;0.70;;;0.30;;
19149;SDS011;9707;49.158;8.632;2024-03-29T05:24:31;0.50;;;0.30;;
19149;SDS011;9707;49.158;8.632;2024-03-29T05:26:56;1.02;;;0.20;;
19149;SDS011;9707;49.158;8.632;2024-03-29T05:29:21;0.73;;;0.28;;
19149;SDS011;9707;49.158;8.632;2024-03-29T05:31:47;0.85;;;0.20;;
19149;SDS011;9707;49.158;8.632;2024-03-29T05:34:12;1.65;;;0.50;;
19149;SDS011;9707;49.158;8.632;2024-03-29T05:36:38;1.55;;;0.13;;
19149;SDS011;9707;49.158;8.632;2024-03-29T05:39:03;0.30;;;0.15;;
19149;SDS011;9707;49.158;8.632;2024-03-29T05:41:28;1.20;;;0.30;;
19149;SDS011;9707;49.158;8.632;2024-03-29T05:43:55;0.38;;;0.22;;
19149;SDS011;9707;49.158;8.632;2024-03-29T05:46:20;0.88;;;0.50;;
19149;SDS011;9707;49.158;8.632;2024-03-29T05:48:46;0.68;;;0.43;;
19149;SDS011;9707;49.158;8.632;2024-03-29T05:51:11;0.32;;;0.30;;
19149;SDS011;9707;49.158;8.632;2024-03-29T05:53:36;0.30;;;0.20;;
19149;SDS011;9707;49.158;8.632;2024-03-29T05:56:02;1.27;;;0.50;;
19149;SDS011;9707;49.158;8.632;2024-03-29T05:58:27;0.85;;;0.50;;
19149;SDS011;9707;49.158;8.632;2024-03-29T06:00:52;0.45;;;0.20;;
19149;SDS011;9707;49.158;8.632;2024-03-29T06:03:17;1.17;;;0.35;;
19149;SDS011;9707;49.158;8.632;2024-03-29T06:05:43;0.50;;;0.30;;
19149;SDS011;9707;49.158;8.632;2024-03-29T06:08:08;0.55;;;0.30;;
19149;SDS011;9707;49.158;8.632;2024-03-29T06:10:33;0.68;;;0.30;;
19149;SDS011;9707;49.158;8.632;2024-03-29T06:12:59;0.77;;;0.40;;
19149;SDS011;9707;49.158;8.632;2024-03-29T06:15:32;0.50;;;0.20;;
19149;SDS011;9707;49.158;8.632;2024-03-29T06:18:19;1.30;;;0.30;;
19149;SDS011;9707;49.158;8.632;2024-03-29T06:20:45;1.23;;;0.50;;
19149;SDS011;9707;49.158;8.632;2024-03-29T06:23:12;0.82;;;0.50;;
19149;SDS011;9707;49.158;8.632;2024-03-29T06:25:38;2.20;;;0.40;;
19149;SDS011;9707;49.158;8.632;2024-03-29T06:28:06;0.65;;;0.30;;
19149;SDS011;9707;49.158;8.632;2024-03-29T06:30:32;1.30;;;0.47;;
19149;SDS011;9707;49.158;8.632;2024-03-29T06:32:57;0.60;;;0.40;;
19149;SDS011;9707;49.158;8.632;2024-03-29T06:35:22;1.08;;;0.40;;
19149;SDS011;9707;49.158;8.632;2024-03-29T06:37:50;0.50;;;0.40;;
19149;SDS011;9707;49.158;8.632;2024-03-29T06:40:16;0.65;;;0.30;;
19149;SDS011;9707;49.158;8.632;2024-03-29T06:42:41;0.52;;;0.40;;
19149;SDS011;9707;49.158;8.632;2024-03-29T06:45:06;0.77;;;0.40;;
19149;SDS011;9707;49.158;8.632;2024-03-29T06:47:34;1.33;;;0.82;;
19149;SDS011;9707;49.158;8.632;2024-03-29T06:49:59;0.52;;;0.32;;
19149;SDS011;9707;49.158;8.632;2024-03-29T06:52:24;0.77;;;0.40;;
19149;SDS011;9707;49.158;8.632;2024-03-29T06:54:49;1.23;;;0.40;;
19149;SDS011;9707;49.158;8.632;2024-03-29T06:57:15;0.98;;;0.30;;
19149;SDS011;9707;49.158;8.632;2024-03-29T06:59:42;1.15;;;0.35;;
19149;SDS011;9707;49.158;8.632;2024-03-29T07:02:07;0.85;;;0.40;;
19149;SDS011;9707;49.158;8.632;2024-03-29T07:04:33;1.38;;;0.38;;
19149;SDS011;9707;49.158;8.632;2024-03-29T07:06:58;0.82;;;0.52;;
19149;SDS011;9707;49.158;8.632;2024-03-29T07:09:24;0.50;;;0.30;;
19149;SDS011;9707;49.158;8.632;2024-03-29T07:11:52;1.33;;;0.30;;
19149;SDS011;9707;49.158;8.632;2024-03-29T07:14:17;0.60;;;0.35;;
19149;SDS011;9707;49.158;8.632;2024-03-29T07:16:44;0.40;;;0.20;;
19149;SDS011;9707;49.158;8.632;2024-03-29T07:19:10;0.60;;;0.40;;
19149;SDS011;9707;49.158;8.632;2024-03-29T07:21:37;2.75;;;0.80;;
19149;SDS011;9707;49.158;8.632;2024-03-29T07:24:03;0.63;;;0.55;;
19149;SDS011;9707;49.158;8.632;2024-03-29T07:26:29;1.00;;;0.73;;
19149;SDS011;9707;49.158;8.632;2024-03-29T07:28:54;0.82;;;0.40;;
19149;SDS011;9707;49.158;8.632;2024-03-29T07:31:19;1.42;;;0.70;;
19149;SDS011;9707;49.158;8.632;2024-03-29T07:33:45;0.90;;;0.47;;
19149;SDS011;9707;49.158;8.632;2024-03-29T07:36:10;0.63;;;0.47;;
19149;SDS011;9707;49.158;8.632;2024-03-29T07:38:36;2.80;;;1.27;;
19149;SDS011;9707;49.158;8.632;2024-03-29T07:41:03;1.67;;;0.57;;
19149;SDS011;9707;49.158;8.632;2024-03-29T07:43:36;2.85;;;0.73;;
19149;SDS011;9707;49.158;8.632;2024-03-29T07:46:03;2.83;;;1.15;;
19149;SDS011;9707;49.158;8.632;2024-03-29T07:48:29;3.50;;;0.47;;
19149;SDS011;9707;49.158;8.632;2024-03-29T07:50:54;1.92;;;0.68;;
19149;SDS011;9707;49.158;8.632;2024-03-29T07:53:19;1.05;;;0.40;;
19149;SDS011;9707;49.158;8.632;2024-03-29T07:55:49;2.83;;;1.17;;
19149;SDS011;9707;49.158;8.632;2024-03-29T07:58:14;1.60;;;1.30;;
19149;SDS011;9707;49.158;8.632;2024-03-29T08:00:42;4.85;;;1.20;;
19149;SDS011;9707;49.158;8.632;2024-03-29T08:03:07;2.95;;;1.00;;
19149;SDS011;9707;49.158;8.632;2024-03-29T08:05:32;1.23;;;0.70;;
19149;SDS011;9707;49.158;8.632;2024-03-29T08:07:58;1.77;;;0.80;;
19149;SDS011;9707;49.158;8.632;2024-03-29T08:10:24;1.77;;;0.77;;
19149;SDS011;9707;49.158;8.632;2024-03-29T08:12:49;2.15;;;0.98;;
19149;SDS011;9707;49.158;8.632;2024-03-29T08:15:14;3.05;;;1.27;;
19149;SDS011;9707;49.158;8.632;2024-03-29T08:17:40;3.90;;;1.83;;
19149;SDS011;9707;49.158;8.632;2024-03-29T08:20:05;2.35;;;0.93;;
19149;SDS011;9707;49.158;8.632;2024-03-29T08:22:31;3.70;;;1.50;;
19149;SDS011;9707;49.158;8.632;2024-03-29T08:24:58;1.65;;;0.70;;
19149;SDS011;9707;49.158;8.632;2024-03-29T08:27:24;4.03;;;1.70;;
19149;SDS011;9707;49.158;8.632;2024-03-29T08:29:49;4.07;;;1.40;;
19149;SDS011;9707;49.158;8.632;2024-03-29T08:32:15;3.05;;;1.40;;
19149;SDS011;9707;49.158;8.632;2024-03-29T08:34:40;7.15;;;1.30;;
19149;SDS011;9707;49.158;8.632;2024-03-29T08:37:06;2.85;;;1.08;;
19149;SDS011;9707;49.158;8.632;2024-03-29T08:39:31;4.80;;;1.67;;
19149;SDS011;9707;49.158;8.632;2024-03-29T08:42:00;2.97;;;0.90;;
19149;SDS011;9707;49.158;8.632;2024-03-29T08:44:29;1.77;;;0.65;;
19149;SDS011;9707;49.158;8.632;2024-03-29T08:46:55;3.80;;;1.35;;
19149;SDS011;9707;49.158;8.632;2024-03-29T08:49:22;4.10;;;0.80;;
19149;SDS011;9707;49.158;8.632;2024-03-29T08:51:47;2.72;;;0.85;;
19149;SDS011;9707;49.158;8.632;2024-03-29T08:54:13;2.03;;;0.80;;
19149;SDS011;9707;49.158;8.632;2024-03-29T08:56:38;1.40;;;0.60;;
19149;SDS011;9707;49.158;8.632;2024-03-29T08:59:05;1.35;;;0.60;;
19149;SDS011;9707;49.158;8.632;2024-03-29T09:01:35;1.08;;;0.50;;
19149;SDS011;9707;49.158;8.632;2024-03-29T09:04:03;1.45;;;0.60;;
19149;SDS011;9707;49.158;8.632;2024-03-29T09:06:31;0.85;;;0.55;;
19149;SDS011;9707;49.158;8.632;2024-03-29T09:08:57;0.63;;;0.50;;
19149;SDS011;9707;49.158;8.632;2024-03-29T09:11:22;1.08;;;0.47;;
19149;SDS011;9707;49.158;8.632;2024-03-29T09:13:47;0.80;;;0.40;;
19149;SDS011;9707;49.158;8.632;2024-03-29T09:16:13;1.00;;;0.50;;
19149;SDS011;9707;49.158;8.632;2024-03-29T09:18:38;2.65;;;0.68;;
19149;SDS011;9707;49.158;8.632;2024-03-29T09:21:04;2.70;;;0.50;;
19149;SDS011;9707;49.158;8.632;2024-03-29T09:23:29;1.20;;;0.50;;
19149;SDS011;9707;49.158;8.632;2024-03-29T09:25:55;0.77;;;0.50;;
19149;SDS011;9707;49.158;8.632;2024-03-29T09:28:22;1.17;;;0.50;;
19149;SDS011;9707;49.158;8.632;2024-03-29T09:30:48;1.10;;;0.50;;
19149;SDS011;9707;49.158;8.632;2024-03-29T09:33:13;1.92;;;0.70;;
19149;SDS011;9707;49.158;8.632;2024-03-29T09:35:38;0.57;;;0.40;;
19149;SDS011;9707;49.158;8.632;2024-03-29T09:38:04;3.53;;;0.70;;
19149;SDS011;9707;49.158;8.632;2024-03-29T09:40:29;1.23;;;0.60;;
19149;SDS011;9707;49.158;8.632;2024-03-29T09:42:59;2.53;;;1.10;;
19149;SDS011;9707;49.158;8.632;2024-03-29T09:45:34;2.03;;;0.60;;
19149;SDS011;9707;49.158;8.632;2024-03-29T09:48:02;1.83;;;0.73;;
19149;SDS011;9707;49.158;8.632;2024-03-29T09:50:29;1.00;;;0.70;;
19149;SDS011;9707;49.158;8.632;2024-03-29T09:52:56;0.98;;;0.77;;
19149;SDS011;9707;49.158;8.632;2024-03-29T09:55:22;0.80;;;0.50;;
19149;SDS011;9707;49.158;8.632;2024-03-29T09:57:48;1.35;;;0.60;;
19149;SDS011;9707;49.158;8.632;2024-03-29T10:00:13;0.80;;;0.40;;
19149;SDS011;9707;49.158;8.632;2024-03-29T10:02:39;1.40;;;0.60;;
19149;SDS011;9707;49.158;8.632;2024-03-29T10:05:06;0.95;;;0.50;;
19149;SDS011;9707;49.158;8.632;2024-03-29T10:07:33;3.03;;;0.90;;
19149;SDS011;9707;49.158;8.632;2024-03-29T10:10:01;3.38;;;0.60;;
19149;SDS011;9707;49.158;8.632;2024-03-29T10:12:27;1.27;;;0.50;;
19149;SDS011;9707;49.158;8.632;2024-03-29T10:14:53;2.97;;;0.80;;
19149;SDS011;9707;49.158;8.632;2024-03-29T10:17:20;1.20;;;0.63;;
19149;SDS011;9707;49.158;8.632;2024-03-29T10:19:46;1.48;;;0.55;;
19149;SDS011;9707;49.158;8.632;2024-03-29T10:22:12;1.60;;;0.45;;
19149;SDS011;9707;49.158;8.632;2024-03-29T10:24:37;2.05;;;0.70;;
19149;SDS011;9707;49.158;8.632;2024-03-29T10:27:03;1.55;;;0.70;;
19149;SDS011;9707;49.158;8.632;2024-03-29T10:29:29;0.90;;;0.60;;
19149;SDS011;9707;49.158;8.632;2024-03-29T10:31:55;1.90;;;0.85;;
19149;SDS011;9707;49.158;8.632;2024-03-29T10:34:20;2.05;;;0.50;;
19149;SDS011;9707;49.158;8.632;2024-03-29T10:36:49;1.90;;;0.73;;
19149;SDS011;9707;49.158;8.632;2024-03-29T10:39:16;0.77;;;0.55;;
19149;SDS011;9707;49.158;8.632;2024-03-29T10:41:43;3.13;;;0.68;;
19149;SDS011;9707;49.158;8.632;2024-03-29T10:44:11;1.10;;;0.60;;
19149;SDS011;9707;49.158;8.632;2024-03-29T10:46:38;2.72;;;0.60;;
19149;SDS011;9707;49.158;8.632;2024-03-29T10:49:07;1.27;;;0.68;;
19149;SDS011;9707;49.158;8.632;2024-03-29T10:51:40;2.30;;;0.80;;
19149;SDS011;9707;49.158;8.632;2024-03-29T10:54:05;1.20;;;0.88;;
19149;SDS011;9707;49.158;8.632;2024-03-29T10:56:34;1.90;;;1.05;;
19149;SDS011;9707;49.158;8.632;2024-03-29T10:59:00;3.53;;;1.42;;
19149;SDS011;9707;49.158;8.632;2024-03-29T11:01:31;1.10;;;0.60;;
19149;SDS011;9707;49.158;8.632;2024-03-29T11:03:58;3.45;;;0.60;;
19149;SDS011;9707;49.158;8.632;2024-03-29T11:06:32;0.98;;;0.40;;
19149;SDS011;9707;49.158;8.632;2024-03-29T11:09:02;1.85;;;0.73;;
19149;SDS011;9707;49.158;8.632;2024-03-29T11:11:31;0.68;;;0.40;;
19149;SDS011;9707;49.158;8.632;2024-03-29T11:14:07;0.77;;;0.35;;
19149;SDS011;9707;49.158;8.632;2024-03-29T11:16:35;0.98;;;0.40;;
19149;SDS011;9707;49.158;8.632;2024-03-29T11:19:00;0.98;;;0.40;;
19149;SDS011;9707;49.158;8.632;2024-03-29T11:21:30;0.90;;;0.32;;
19149;SDS011;9707;49.158;8.632;2024-03-29T11:23:56;0.85;;;0.40;;
19149;SDS011;9707;49.158;8.632;2024-03-29T11:26:22;1.08;;;0.50;;
19149;SDS011;9707;49.158;8.632;2024-03-29T11:28:51;2.45;;;0.60;;
19149;SDS011;9707;49.158;8.632;2024-03-29T11:31:17;2.58;;;1.38;;
19149;SDS011;9707;49.158;8.632;2024-03-29T11:33:47;2.05;;;0.57;;
19149;SDS011;9707;49.158;8.632;2024-03-29T11:36:20;2.38;;;1.10;;
19149;SDS011;9707;49.158;8.632;2024-03-29T11:38:56;2.47;;;0.50;;
19149;SDS011;9707;49.158;8.632;2024-03-29T11:41:23;0.85;;;0.50;;
19149;SDS011;9707;49.158;8.632;2024-03-29T11:43:49;1.15;;;0.57;;
19149;SDS011;9707;49.158;8.632;2024-03-29T11:46:16;1.08;;;0.55;;
19149;SDS011;9707;49.158;8.632;2024-03-29T11:48:42;3.00;;;0.93;;
19149;SDS011;9707;49.158;8.632;2024-03-29T11:51:11;1.35;;;0.40;;
19149;SDS011;9707;49.158;8.632;2024-03-29T11:53:39;1.10;;;0.50;;
19149;SDS011;9707;49.158;8.632;2024-03-29T11:56:05;4.53;;;0.63;;
19149;SDS011;9707;49.158;8.632;2024-03-29T11:58:31;0.50;;;0.40;;
19149;SDS011;9707;49.158;8.632;2024-03-29T12:00:58;1.00;;;0.70;;
19149;SDS011;9707;49.158;8.632;2024-03-29T12:03:28;1.17;;;0.47;;
19149;SDS011;9707;49.158;8.632;2024-03-29T12:05:55;1.85;;;0.80;;
19149;SDS011;9707;49.158;8.632;2024-03-29T12:08:28;1.73;;;0.77;;
19149;SDS011;9707;49.158;8.632;2024-03-29T12:10:55;2.05;;;0.82;;
19149;SDS011;9707;49.158;8.632;2024-03-29T12:13:22;1.55;;;0.60;;
19149;SDS011;9707;49.158;8.632;2024-03-29T12:15:48;0.85;;;0.50;;
19149;SDS011;9707;49.158;8.632;2024-03-29T12:18:13;2.88;;;1.00;;
19149;SDS011;9707;49.158;8.632;2024-03-29T12:20:41;1.25;;;0.52;;
19149;SDS011;9707;49.158;8.632;2024-03-29T12:23:08;0.73;;;0.50;;
19149;SDS011;9707;49.158;8.632;2024-03-29T12:25:35;1.10;;;0.40;;
19149;SDS011;9707;49.158;8.632;2024-03-29T12:28:01;0.80;;;0.38;;
19149;SDS011;9707;49.158;8.632;2024-03-29T12:30:27;3.63;;;0.73;;
19149;SDS011;9707;49.158;8.632;2024-03-29T12:35:28;2.22;;;1.10;;
19149;SDS011;9707;49.158;8.632;2024-03-29T12:37:57;1.33;;;0.60;;
19149;SDS011;9707;49.158;8.632;2024-03-29T12:40:28;0.98;;;0.30;;
19149;SDS011;9707;49.158;8.632;2024-03-29T12:42:55;1.23;;;0.60;;
19149;SDS011;9707;49.158;8.632;2024-03-29T12:45:21;2.28;;;0.68;;
19149;SDS011;9707;49.158;8.632;2024-03-29T12:47:47;0.70;;;0.40;;
19149;SDS011;9707;49.158;8.632;2024-03-29T12:50:14;1.05;;;0.70;;
19149;SDS011;9707;49.158;8.632;2024-03-29T12:52:49;0.60;;;0.30;;
19149;SDS011;9707;49.158;8.632;2024-03-29T12:55:14;1.65;;;0.40;;
19149;SDS011;9707;49.158;8.632;2024-03-29T12:57:43;0.35;;;0.30;;
19149;SDS011;9707;49.158;8.632;2024-03-29T13:00:09;0.35;;;0.30;;
19149;SDS011;9707;49.158;8.632;2024-03-29T13:02:35;0.63;;;0.30;;
19149;SDS011;9707;49.158;8.632;2024-03-29T13:05:02;1.83;;;0.60;;
19149;SDS011;9707;49.158;8.632;2024-03-29T13:07:29;1.10;;;0.43;;
19149;SDS011;9707;49.158;8.632;2024-03-29T13:09:54;3.58;;;0.95;;
19149;SDS011;9707;49.158;8.632;2024-03-29T13:12:20;2.42;;;1.20;;
19149;SDS011;9707;49.158;8.632;2024-03-29T13:14:46;1.15;;;0.85;;
19149;SDS011;9707;49.158;8.632;2024-03-29T13:17:11;0.90;;;0.65;;
19149;SDS011;9707;49.158;8.632;2024-03-29T13:19:36;0.93;;;0.70;;
19149;SDS011;9707;49.158;8.632;2024-03-29T13:22:01;2.47;;;1.08;;
19149;SDS011;9707;49.158;8.632;2024-03-29T13:24:27;1.48;;;0.65;;
19149;SDS011;9707;49.158;8.632;2024-03-29T13:26:53;3.15;;;0.85;;
19149;SDS011;9707;49.158;8.632;2024-03-29T13:29:19;0.60;;;0.55;;
19149;SDS011;9707;49.158;8.632;2024-03-29T13:31:45;1.50;;;0.73;;
19149;SDS011;9707;49.158;8.632;2024-03-29T13:34:11;3.25;;;1.52;;
19149;SDS011;9707;49.158;8.632;2024-03-29T13:36:39;2.78;;;1.30;;
19149;SDS011;9707;49.158;8.632;2024-03-29T13:39:05;2.50;;;1.10;;
19149;SDS011;9707;49.158;8.632;2024-03-29T13:41:32;1.73;;;1.00;;
19149;SDS011;9707;49.158;8.632;2024-03-29T13:43:57;1.52;;;0.73;;
19149;SDS011;9707;49.158;8.632;2024-03-29T13:46:23;2.88;;;1.42;;
19149;SDS011;9707;49.158;8.632;2024-03-29T13:48:48;1.40;;;1.10;;
19149;SDS011;9707;49.158;8.632;2024-03-29T13:51:13;2.17;;;0.90;;
19149;SDS011;9707;49.158;8.632;2024-03-29T13:53:41;1.48;;;1.10;;
19149;SDS011;9707;49.158;8.632;2024-03-29T13:56:07;1.75;;;0.40;;
19149;SDS011;9707;49.158;8.632;2024-03-29T13:58:32;2.92;;;0.80;;
19149;SDS011;9707;49.158;8.632;2024-03-29T14:00:58;1.58;;;1.17;;
19149;SDS011;9707;49.158;8.632;2024-03-29T14:03:25;2.15;;;1.45;;
19149;SDS011;9707;49.158;8.632;2024-03-29T14:05:50;2.95;;;1.80;;
19149;SDS011;9707;49.158;8.632;2024-03-29T14:08:16;2.72;;;2.30;;
19149;SDS011;9707;49.158;8.632;2024-03-29T14:10:41;4.05;;;2.58;;
19149;SDS011;9707;49.158;8.632;2024-03-29T14:13:07;2.30;;;2.10;;
19149;SDS011;9707;49.158;8.632;2024-03-29T14:15:32;2.10;;;1.80;;
19149;SDS011;9707;49.158;8.632;2024-03-29T14:17:58;4.15;;;2.20;;
19149;SDS011;9707;49.158;8.632;2024-03-29T14:20:23;3.83;;;2.25;;
19149;SDS011;9707;49.158;8.632;2024-03-29T14:22:48;3.33;;;2.42;;
19149;SDS011;9707;49.158;8.632;2024-03-29T14:25:19;3.47;;;1.88;;
19149;SDS011;9707;49.158;8.632;2024-03-29T14:27:44;3.50;;;1.90;;
19149;SDS011;9707;49.158;8.632;2024-03-29T14:30:19;3.85;;;1.83;;
19149;SDS011;9707;49.158;8.632;2024-03-29T14:32:49;2.80;;;2.10;;
19149;SDS011;9707;49.158;8.632;2024-03-29T14:35:15;2.85;;;1.67;;
19149;SDS011;9707;49.158;8.632;2024-03-29T14:37:42;2.00;;;1.80;;
19149;SDS011;9707;49.158;8.632;2024-03-29T14:40:07;4.38;;;2.00;;
19149;SDS011;9707;49.158;8.632;2024-03-29T14:42:33;2.58;;;2.15;;
19149;SDS011;9707;49.158;8.632;2024-03-29T14:45:01;3.08;;;1.98;;
19149;SDS011;9707;49.158;8.632;2024-03-29T14:47:29;2.65;;;2.03;;
19149;SDS011;9707;49.158;8.632;2024-03-29T14:49:54;3.63;;;2.13;;
19149;SDS011;9707;49.158;8.632;2024-03-29T14:52:19;2.92;;;1.85;;
19149;SDS011;9707;49.158;8.632;2024-03-29T14:54:45;3.67;;;3.03;;
19149;SDS011;9707;49.158;8.632;2024-03-29T14:57:10;3.97;;;2.25;;